Time;durP1;ratioP1;P1;durP2;ratioP2;P2;SDS_P1;SDS_P2;PMS_P1;PMS_P2;Temp;Humidity;BMP_temperature;BMP_pressure;BME280_temperature;BME280_humidity;BME280_pressure;Samples;Min_cycle;Max_cycle;Signal;HPM_P1;HPM_P2
2023/06/03 19:11:08;;;;;;;2.40;1.02;;;23.60;37.80;;;;;;5110327;27;20679;-60
2023/06/03 19:13:34;;;;;;;2.95;1.27;;;23.00;38.70;;;;;;5109116;28;20028;-60
2023/06/03 19:16:00;;;;;;;2.95;1.60;;;22.90;39.50;;;;;;5109443;28;20032;-60
2023/06/03 19:18:25;;;;;;;3.65;1.30;;;22.90;39.60;;;;;;5109704;28;20333;-60
2023/06/03 19:20:51;;;;;;;2.10;1.10;;;22.80;39.30;;;;;;5107857;28;20034;-61
2023/06/03 19:23:16;;;;;;;6.13;1.00;;;22.80;39.20;;;;;;5107419;28;20019;-60
2023/06/03 19:25:43;;;;;;;1.38;1.08;;;22.70;39.30;;;;;;5108384;28;20027;-61
2023/06/03 19:28:09;;;;;;;1.63;1.00;;;22.50;39.50;;;;;;5106985;28;20495;-59
2023/06/03 19:30:36;;;;;;;1.33;0.70;;;22.50;39.70;;;;;;5109315;28;20092;-59
2023/06/03 19:33:02;;;;;;;2.75;1.00;;;22.40;39.90;;;;;;5108714;28;20092;-59
2023/06/03 19:35:28;;;;;;;2.45;1.25;;;22.40;40.20;;;;;;5109070;28;20036;-58
2023/06/03 19:37:53;;;;;;;2.22;1.05;;;22.30;40.20;;;;;;5109078;28;20384;-59
2023/06/03 19:40:19;;;;;;;3.63;1.98;;;22.20;40.60;;;;;;5106927;28;20042;-60
2023/06/03 19:42:45;;;;;;;3.58;1.35;;;22.10;40.80;;;;;;5109265;28;20048;-61
2023/06/03 19:45:11;;;;;;;4.47;1.80;;;22.00;41.50;;;;;;5107211;28;20028;-61
2023/06/03 19:47:37;;;;;;;3.10;1.35;;;21.90;41.20;;;;;;5108247;28;20032;-61
2023/06/03 19:50:03;;;;;;;3.45;1.35;;;21.80;41.50;;;;;;5108574;28;20426;-60
2023/06/03 19:52:29;;;;;;;2.55;1.30;;;21.70;42.40;;;;;;5109122;28;20028;-59
2023/06/03 19:54:55;;;;;;;3.70;1.20;;;21.50;43.50;;;;;;5108502;28;20391;-60
2023/06/03 19:57:20;;;;;;;4.82;1.10;;;21.30;43.50;;;;;;5108889;28;20024;-62
2023/06/03 19:59:47;;;;;;;2.63;1.13;;;21.20;44.50;;;;;;5108922;28;20015;-60
2023/06/03 20:02:12;;;;;;;1.75;1.00;;;21.00;44.80;;;;;;5107470;28;20016;-59
2023/06/03 20:04:38;;;;;;;4.90;1.20;;;20.90;44.30;;;;;;5108391;28;20031;-60
2023/06/03 20:07:04;;;;;;;5.05;1.10;;;20.80;44.30;;;;;;5107417;28;20027;-60
2023/06/03 20:09:30;;;;;;;2.50;1.27;;;20.80;44.50;;;;;;5108049;28;20492;-61
2023/06/03 20:11:56;;;;;;;2.20;1.40;;;20.70;44.20;;;;;;5108747;28;20366;-61
2023/06/03 20:14:23;;;;;;;3.72;1.30;;;20.60;45.30;;;;;;5108464;28;20434;-60
2023/06/03 20:16:49;;;;;;;1.95;1.20;;;20.50;45.20;;;;;;5105689;28;20027;-61
2023/06/03 20:19:15;;;;;;;2.55;1.02;;;20.40;46.10;;;;;;5106851;28;20032;-60
2023/06/03 20:21:41;;;;;;;1.67;0.82;;;20.30;45.90;;;;;;5099309;28;20111;-60
2023/06/03 20:24:07;;;;;;;2.35;1.30;;;20.10;45.80;;;;;;5093689;28;20031;-59
2023/06/03 20:26:33;;;;;;;1.10;1.00;;;20.00;45.40;;;;;;5095022;28;20477;-60
2023/06/03 20:28:58;;;;;;;2.35;1.13;;;19.80;45.60;;;;;;5094849;28;20032;-60
2023/06/03 20:31:24;;;;;;;1.95;1.00;;;19.60;46.20;;;;;;5093542;28;20035;-61
2023/06/03 20:33:49;;;;;;;1.20;0.90;;;19.40;47.50;;;;;;5095004;28;20103;-61
2023/06/03 20:36:19;;;;;;;4.00;0.82;;;19.30;48.40;;;;;;5091639;28;20028;-61
2023/06/03 20:38:45;;;;;;;3.03;0.90;;;19.10;48.50;;;;;;5094397;28;20020;-60
2023/06/03 20:41:12;;;;;;;2.33;1.15;;;19.00;48.90;;;;;;5094020;28;20387;-59
2023/06/03 20:43:37;;;;;;;1.92;1.17;;;18.80;49.20;;;;;;5092437;28;20052;-59
2023/06/03 20:46:03;;;;;;;2.95;1.40;;;18.70;49.80;;;;;;5093987;28;20059;-59
2023/06/03 20:48:29;;;;;;;2.25;1.30;;;18.60;50.50;;;;;;5094067;28;20046;-59
2023/06/03 20:50:55;;;;;;;2.53;1.40;;;18.30;50.70;;;;;;5094064;28;20040;-60
2023/06/03 20:53:20;;;;;;;4.22;1.50;;;18.00;51.80;;;;;;5093923;28;20013;-60
2023/06/03 20:55:46;;;;;;;2.13;1.20;;;17.70;52.50;;;;;;5093433;28;20060;-60
2023/06/03 20:58:12;;;;;;;2.65;1.33;;;17.50;53.20;;;;;;5093177;28;20020;-60
2023/06/03 21:00:38;;;;;;;2.03;1.10;;;17.40;53.80;;;;;;5094032;28;20106;-60
2023/06/03 21:03:04;;;;;;;2.70;1.05;;;17.30;52.70;;;;;;5093477;28;20020;-61
2023/06/03 21:05:29;;;;;;;2.67;1.00;;;17.20;52.30;;;;;;5092763;28;20510;-60
2023/06/03 21:07:55;;;;;;;1.40;1.02;;;17.10;53.10;;;;;;5093586;28;20019;-59
2023/06/03 21:10:21;;;;;;;5.63;1.63;;;17.10;53.20;;;;;;5093207;28;20044;-59
2023/06/03 21:12:46;;;;;;;1.70;0.88;;;17.20;53.60;;;;;;5093331;28;20065;-59
2023/06/03 21:15:12;;;;;;;2.40;1.05;;;17.30;53.90;;;;;;5093333;28;20436;-59
2023/06/03 21:17:38;;;;;;;3.80;1.52;;;17.30;54.20;;;;;;5093795;28;20028;-59
2023/06/03 21:20:04;;;;;;;4.50;1.65;;;17.20;55.30;;;;;;5092087;28;20032;-59
2023/06/03 21:22:30;;;;;;;2.20;1.00;;;17.20;55.20;;;;;;5093235;28;20024;-59
2023/06/03 21:24:56;;;;;;;1.90;1.23;;;17.10;55.50;;;;;;5093747;28;20032;-59
2023/06/03 21:27:21;;;;;;;1.95;0.93;;;17.00;56.10;;;;;;5092762;28;20073;-59
2023/06/03 21:29:47;;;;;;;2.78;1.15;;;17.00;56.70;;;;;;5093385;28;20051;-60
2023/06/03 21:32:13;;;;;;;2.70;1.25;;;16.90;56.90;;;;;;5092633;28;20417;-61
2023/06/03 21:34:39;;;;;;;3.35;1.13;;;16.80;57.50;;;;;;5091884;28;20107;-61
2023/06/03 21:37:05;;;;;;;2.35;1.10;;;16.80;57.90;;;;;;5093023;28;20019;-60
2023/06/03 21:39:31;;;;;;;3.45;1.00;;;16.70;58.50;;;;;;5092807;28;20055;-60
2023/06/03 21:41:57;;;;;;;3.30;1.20;;;16.60;58.70;;;;;;5092127;28;20372;-61
